»·PEaware :: N1SC KHII-KPRC

N1SC :: KHII-KPRC

FLIGHT INFORMATION

Flight Status: Arrived
Operator: Privately registered:
United States
More flights under this callsign
Pilot: Anonymous 10181 (10181)
Aircraft: PIPER PA-24 COMMANCHE
(PA24)
More flights by this aircraft type
Origin: KHII Lake Havasu City
United States
Destination: KPRC Love
United States
More flights between these airports :: More routes between these airports
Route: EED V12 DRK
File this flight plan on PilotEdge
Remarks: Happy Thursday! <3
Altitude:
(Current/Filed)
11,000ft
Speed:
(Current/Filed)
155kts
Departed: 20-Jul-23 03:41 PM
Arrived: 20-Jul-23 04:35 PM
Distance/Time
Traveled:
96nm/0:53
Distance/Time
To Go:
Arrived

Flight Plot

Page will automatically refresh every two minutes.

Flight plan parsing failed; only flown route is shown


Map Options




Map Legend


Flown Route
Filed Route
Departure Airport
Arrival Airport
Navaid (VOR, NDB)
Fix

Horizontal Profiles

Position Reports

Time Latitude Longitude Heading Altitude Ground
Speed
20-Jul-23 15:21 34.569472 -114.359445 64 767ft 0kts
20-Jul-23 15:22 34.569472 -114.359445 64 767ft 0kts
20-Jul-23 15:23 34.569472 -114.359445 64 776ft 0kts
20-Jul-23 15:24 34.569472 -114.359445 64 776ft 0kts
20-Jul-23 15:25 34.569472 -114.359445 64 776ft 0kts
20-Jul-23 15:26 34.569472 -114.359445 64 776ft 0kts
20-Jul-23 15:27 34.569472 -114.359445 64 776ft 0kts
20-Jul-23 15:28 34.569472 -114.359445 64 776ft 0kts
20-Jul-23 15:29 34.569472 -114.359445 64 776ft 0kts
20-Jul-23 15:30 34.569472 -114.359445 64 776ft 0kts
20-Jul-23 15:31 34.569472 -114.359445 64 776ft 0kts
20-Jul-23 15:32 34.569472 -114.359445 64 776ft 0kts
20-Jul-23 15:33 34.569472 -114.359445 64 776ft 0kts
20-Jul-23 15:34 34.569472 -114.359445 64 776ft 0kts
20-Jul-23 15:35 34.567011 -114.356655 148 771ft 16kts
20-Jul-23 15:36 34.563330 -114.354048 149 781ft 13kts
20-Jul-23 15:37 34.561389 -114.352921 9 785ft 0kts
20-Jul-23 15:38 34.561390 -114.352921 9 785ft 0kts
20-Jul-23 15:39 34.561641 -114.351842 55 785ft 4kts
20-Jul-23 15:40 34.572764 -114.358808 327 918ft 94kts
20-Jul-23 15:41 34.593724 -114.373276 304 1811ft 85kts
20-Jul-23 15:42 34.611325 -114.393885 303 2410ft 86kts
20-Jul-23 15:43 34.625895 -114.420614 295 3256ft 102kts
20-Jul-23 15:44 34.644885 -114.446588 333 4129ft 109kts
20-Jul-23 15:45 34.675207 -114.455279 347 4970ft 114kts
20-Jul-23 15:46 34.707331 -114.459334 341 5760ft 115kts
20-Jul-23 15:47 34.736785 -114.446640 57 6451ft 123kts
20-Jul-23 15:48 34.753273 -114.410153 59 7211ft 123kts
20-Jul-23 15:49 34.767365 -114.372151 79 7941ft 123kts
20-Jul-23 15:50 34.766563 -114.330404 99 8638ft 124kts
20-Jul-23 15:51 34.762432 -114.288041 95 9315ft 127kts
20-Jul-23 15:52 34.759672 -114.245183 93 9924ft 127kts
20-Jul-23 15:53 34.758082 -114.202274 92 10468ft 126kts
20-Jul-23 15:54 34.756783 -114.159338 91 10983ft 126kts
20-Jul-23 15:55 34.755700 -114.111654 92 11019ft 154kts
20-Jul-23 15:56 34.753943 -114.058259 92 11014ft 158kts
20-Jul-23 15:57 34.753146 -114.004731 88 11023ft 158kts
20-Jul-23 15:58 34.756081 -113.951374 85 11028ft 158kts
20-Jul-23 15:59 34.759455 -113.898129 85 11036ft 158kts
20-Jul-23 16:00 34.762342 -113.844348 87 11045ft 160kts
20-Jul-23 16:01 34.762878 -113.790223 91 11047ft 159kts
20-Jul-23 16:02 34.760625 -113.736183 94 11064ft 159kts
20-Jul-23 16:03 34.756973 -113.682551 96 11071ft 159kts
20-Jul-23 16:04 34.752484 -113.629060 96 11078ft 159kts
20-Jul-23 16:05 34.749362 -113.574980 94 11081ft 160kts
20-Jul-23 16:06 34.746427 -113.520596 94 11083ft 161kts
20-Jul-23 16:07 34.743797 -113.466307 93 11093ft 160kts
20-Jul-23 16:08 34.742273 -113.410804 92 11001ft 164kts
20-Jul-23 16:09 34.740268 -113.355778 92 11005ft 161kts
20-Jul-23 16:10 34.738307 -113.300836 92 11011ft 162kts
20-Jul-23 16:11 34.735884 -113.246281 93 11021ft 161kts
20-Jul-23 16:12 34.733493 -113.191209 93 11026ft 164kts
20-Jul-23 16:13 34.731043 -113.136080 93 11031ft 164kts
20-Jul-23 16:14 34.728433 -113.080737 93 11038ft 164kts
20-Jul-23 16:15 34.725437 -113.025066 92 11040ft 165kts
20-Jul-23 16:16 34.723908 -112.968954 94 11016ft 167kts
20-Jul-23 16:17 34.721267 -112.912732 92 11019ft 165kts
20-Jul-23 16:18 34.718676 -112.856501 92 11033ft 167kts
20-Jul-23 16:19 34.716179 -112.799470 91 11069ft 168kts
20-Jul-23 16:20 34.713435 -112.742604 92 11121ft 170kts
20-Jul-23 16:21 34.712323 -112.685184 72 10777ft 179kts
20-Jul-23 16:22 34.752885 -112.673294 347 10384ft 152kts
20-Jul-23 16:23 34.792510 -112.665356 25 9412ft 153kts
20-Jul-23 16:24 34.823817 -112.636731 65 9023ft 126kts
20-Jul-23 16:25 34.812451 -112.594066 132 8747ft 146kts
20-Jul-23 16:26 34.784333 -112.557693 134 8522ft 149kts
20-Jul-23 16:27 34.752836 -112.524871 143 8174ft 152kts
20-Jul-23 16:28 34.719837 -112.492317 149 7445ft 151kts
20-Jul-23 16:29 34.687112 -112.461248 143 6663ft 154kts
20-Jul-23 16:30 34.666896 -112.423624 59 6387ft 123kts
20-Jul-23 16:31 34.692086 -112.408711 61 5851ft 106kts
20-Jul-23 16:32 34.678492 -112.393798 229 5688ft 73kts
20-Jul-23 16:33 34.661438 -112.412077 227 4969ft 74kts
20-Jul-23 16:34 34.654937 -112.419008 223 4999ft 15kts
20-Jul-23 16:35 34.655036 -112.420345 310 5000ft 0kts
20-Jul-23 16:36 34.655193 -112.421425 245 4997ft 2kts
20-Jul-23 16:37 34.654881 -112.421897 96 5000ft 0kts

Navigation Log

Ident Type
Flight plan parsing failed, navigation log unavailable